sensor_id;sensor_type;location;lat;lon;timestamp;temperature;humidity
26954;DHT22;14508;50.924;11.600;2022-11-23T00:01:12;3.60;99.90
26954;DHT22;14508;50.924;11.600;2022-11-23T00:03:40;3.60;99.90
26954;DHT22;14508;50.924;11.600;2022-11-23T00:06:09;3.50;99.90
26954;DHT22;14508;50.924;11.600;2022-11-23T00:08:37;3.50;99.90
26954;DHT22;14508;50.924;11.600;2022-11-23T00:11:07;3.40;99.90
26954;DHT22;14508;50.924;11.600;2022-11-23T00:13:35;3.40;99.90
26954;DHT22;14508;50.924;11.600;2022-11-23T00:16:06;3.40;99.90
26954;DHT22;14508;50.924;11.600;2022-11-23T00:18:34;3.30;99.90
26954;DHT22;14508;50.924;11.600;2022-11-23T00:21:05;3.40;99.90
26954;DHT22;14508;50.924;11.600;2022-11-23T00:23:34;3.40;99.90
26954;DHT22;14508;50.924;11.600;2022-11-23T00:26:02;3.50;99.90
26954;DHT22;14508;50.924;11.600;2022-11-23T00:28:32;3.70;99.90
26954;DHT22;14508;50.924;11.600;2022-11-23T00:31:03;3.80;99.90
26954;DHT22;14508;50.924;11.600;2022-11-23T00:33:31;3.90;99.90
26954;DHT22;14508;50.924;11.600;2022-11-23T00:36:00;3.80;99.90
26954;DHT22;14508;50.924;11.600;2022-11-23T00:38:29;3.80;99.90
26954;DHT22;14508;50.924;11.600;2022-11-23T00:40:58;3.70;99.90
26954;DHT22;14508;50.924;11.600;2022-11-23T00:43:28;3.60;99.90
26954;DHT22;14508;50.924;11.600;2022-11-23T00:46:06;3.60;99.90
26954;DHT22;14508;50.924;11.600;2022-11-23T00:48:34;3.50;99.90
26954;DHT22;14508;50.924;11.600;2022-11-23T00:51:04;3.50;99.90
26954;DHT22;14508;50.924;11.600;2022-11-23T00:53:33;3.50;99.90
26954;DHT22;14508;50.924;11.600;2022-11-23T00:56:01;3.40;99.90
26954;DHT22;14508;50.924;11.600;2022-11-23T00:58:29;3.40;99.90
26954;DHT22;14508;50.924;11.600;2022-11-23T01:01:04;3.40;99.90
26954;DHT22;14508;50.924;11.600;2022-11-23T01:03:34;3.40;99.90
26954;DHT22;14508;50.924;11.600;2022-11-23T01:06:04;3.40;99.90
26954;DHT22;14508;50.924;11.600;2022-11-23T01:08:33;3.40;99.90
26954;DHT22;14508;50.924;11.600;2022-11-23T01:11:03;3.40;99.90
26954;DHT22;14508;50.924;11.600;2022-11-23T01:13:34;3.40;99.90
26954;DHT22;14508;50.924;11.600;2022-11-23T01:16:06;3.40;99.90
26954;DHT22;14508;50.924;11.600;2022-11-23T01:18:36;3.40;99.90
26954;DHT22;14508;50.924;11.600;2022-11-23T01:21:04;3.50;99.90
26954;DHT22;14508;50.924;11.600;2022-11-23T01:23:32;3.50;99.90
26954;DHT22;14508;50.924;11.600;2022-11-23T01:26:06;3.60;99.90
26954;DHT22;14508;50.924;11.600;2022-11-23T01:28:35;3.70;99.90
26954;DHT22;14508;50.924;11.600;2022-11-23T01:31:06;3.80;99.90
26954;DHT22;14508;50.924;11.600;2022-11-23T01:33:35;3.80;99.90
26954;DHT22;14508;50.924;11.600;2022-11-23T01:36:09;3.90;99.90
26954;DHT22;14508;50.924;11.600;2022-11-23T01:38:37;3.90;99.90
26954;DHT22;14508;50.924;11.600;2022-11-23T01:41:06;3.90;99.90
26954;DHT22;14508;50.924;11.600;2022-11-23T01:43:34;4.00;99.90
26954;DHT22;14508;50.924;11.600;2022-11-23T01:46:03;4.00;99.90
26954;DHT22;14508;50.924;11.600;2022-11-23T01:48:35;4.10;99.90
26954;DHT22;14508;50.924;11.600;2022-11-23T01:51:08;4.20;99.90
26954;DHT22;14508;50.924;11.600;2022-11-23T01:53:38;4.30;99.90
26954;DHT22;14508;50.924;11.600;2022-11-23T01:56:09;4.40;99.90
26954;DHT22;14508;50.924;11.600;2022-11-23T01:58:41;4.50;99.90
26954;DHT22;14508;50.924;11.600;2022-11-23T02:01:11;4.70;99.90
26954;DHT22;14508;50.924;11.600;2022-11-23T02:03:41;4.80;99.90
26954;DHT22;14508;50.924;11.600;2022-11-23T02:06:13;4.90;99.90
26954;DHT22;14508;50.924;11.600;2022-11-23T02:08:42;5.00;99.90
26954;DHT22;14508;50.924;11.600;2022-11-23T02:11:10;5.00;99.90
26954;DHT22;14508;50.924;11.600;2022-11-23T02:13:40;5.10;99.90
26954;DHT22;14508;50.924;11.600;2022-11-23T02:16:09;5.10;99.90
26954;DHT22;14508;50.924;11.600;2022-11-23T02:18:41;5.20;99.90
26954;DHT22;14508;50.924;11.600;2022-11-23T02:21:10;5.30;99.90
26954;DHT22;14508;50.924;11.600;2022-11-23T02:23:53;5.30;99.90
26954;DHT22;14508;50.924;11.600;2022-11-23T02:26:25;5.30;99.90
26954;DHT22;14508;50.924;11.600;2022-11-23T02:29:03;5.40;99.90
26954;DHT22;14508;50.924;11.600;2022-11-23T02:31:32;5.40;99.90
26954;DHT22;14508;50.924;11.600;2022-11-23T02:34:00;5.40;99.90
26954;DHT22;14508;50.924;11.600;2022-11-23T02:36:34;5.50;99.90
26954;DHT22;14508;50.924;11.600;2022-11-23T02:39:08;5.50;99.90
26954;DHT22;14508;50.924;11.600;2022-11-23T02:41:41;5.50;99.90
26954;DHT22;14508;50.924;11.600;2022-11-23T02:44:21;5.50;99.90
26954;DHT22;14508;50.924;11.600;2022-11-23T02:46:50;5.50;99.90
26954;DHT22;14508;50.924;11.600;2022-11-23T02:49:18;5.50;99.90
26954;DHT22;14508;50.924;11.600;2022-11-23T02:51:49;5.60;99.90
26954;DHT22;14508;50.924;11.600;2022-11-23T02:54:17;5.60;99.90
26954;DHT22;14508;50.924;11.600;2022-11-23T02:56:46;5.60;99.90
26954;DHT22;14508;50.924;11.600;2022-11-23T02:59:16;5.60;99.90
26954;DHT22;14508;50.924;11.600;2022-11-23T03:01:44;5.60;99.90
26954;DHT22;14508;50.924;11.600;2022-11-23T03:04:13;5.60;99.90
26954;DHT22;14508;50.924;11.600;2022-11-23T03:06:41;5.60;99.90
26954;DHT22;14508;50.924;11.600;2022-11-23T03:09:09;5.60;99.90
26954;DHT22;14508;50.924;11.600;2022-11-23T03:11:37;5.60;99.90
26954;DHT22;14508;50.924;11.600;2022-11-23T03:14:06;5.60;99.90
26954;DHT22;14508;50.924;11.600;2022-11-23T03:16:42;5.60;99.90
26954;DHT22;14508;50.924;11.600;2022-11-23T03:19:11;5.60;99.90
26954;DHT22;14508;50.924;11.600;2022-11-23T03:21:39;5.60;99.90
26954;DHT22;14508;50.924;11.600;2022-11-23T03:24:07;5.60;99.90
26954;DHT22;14508;50.924;11.600;2022-11-23T03:26:36;5.60;99.90
26954;DHT22;14508;50.924;11.600;2022-11-23T03:29:09;5.60;99.90
26954;DHT22;14508;50.924;11.600;2022-11-23T03:31:39;5.60;99.90
26954;DHT22;14508;50.924;11.600;2022-11-23T03:34:10;5.50;99.90
26954;DHT22;14508;50.924;11.600;2022-11-23T03:36:39;5.50;99.90
26954;DHT22;14508;50.924;11.600;2022-11-23T03:39:07;5.50;99.90
26954;DHT22;14508;50.924;11.600;2022-11-23T03:41:54;5.60;99.90
26954;DHT22;14508;50.924;11.600;2022-11-23T03:44:31;5.60;99.90
26954;DHT22;14508;50.924;11.600;2022-11-23T03:46:59;5.60;99.90
26954;DHT22;14508;50.924;11.600;2022-11-23T03:49:28;5.50;99.90
26954;DHT22;14508;50.924;11.600;2022-11-23T03:51:56;5.50;99.90
26954;DHT22;14508;50.924;11.600;2022-11-23T03:54:26;5.50;99.90
26954;DHT22;14508;50.924;11.600;2022-11-23T03:56:54;5.50;99.90
26954;DHT22;14508;50.924;11.600;2022-11-23T03:59:22;5.50;99.90
26954;DHT22;14508;50.924;11.600;2022-11-23T04:01:52;5.50;99.90
26954;DHT22;14508;50.924;11.600;2022-11-23T04:04:25;5.50;99.90
26954;DHT22;14508;50.924;11.600;2022-11-23T04:07:11;5.50;99.90
26954;DHT22;14508;50.924;11.600;2022-11-23T04:09:46;5.50;99.90
26954;DHT22;14508;50.924;11.600;2022-11-23T04:12:22;5.50;99.90
26954;DHT22;14508;50.924;11.600;2022-11-23T04:14:51;5.50;99.90
26954;DHT22;14508;50.924;11.600;2022-11-23T04:17:21;5.50;99.90
26954;DHT22;14508;50.924;11.600;2022-11-23T04:19:49;5.50;99.90
26954;DHT22;14508;50.924;11.600;2022-11-23T04:22:17;5.50;99.90
26954;DHT22;14508;50.924;11.600;2022-11-23T04:24:46;5.50;99.90
26954;DHT22;14508;50.924;11.600;2022-11-23T04:27:15;5.50;99.90
26954;DHT22;14508;50.924;11.600;2022-11-23T04:29:43;5.50;99.90
26954;DHT22;14508;50.924;11.600;2022-11-23T04:32:11;5.50;99.90
26954;DHT22;14508;50.924;11.600;2022-11-23T04:34:40;5.50;99.90
26954;DHT22;14508;50.924;11.600;2022-11-23T04:37:11;5.50;99.90
26954;DHT22;14508;50.924;11.600;2022-11-23T04:39:41;5.60;99.90
26954;DHT22;14508;50.924;11.600;2022-11-23T04:42:23;5.60;99.90
26954;DHT22;14508;50.924;11.600;2022-11-23T04:44:55;5.60;99.90
26954;DHT22;14508;50.924;11.600;2022-11-23T04:47:24;5.70;99.90
26954;DHT22;14508;50.924;11.600;2022-11-23T04:49:55;5.70;99.90
26954;DHT22;14508;50.924;11.600;2022-11-23T04:52:23;5.80;99.90
26954;DHT22;14508;50.924;11.600;2022-11-23T04:54:51;5.80;99.90
26954;DHT22;14508;50.924;11.600;2022-11-23T04:57:21;5.80;99.90
26954;DHT22;14508;50.924;11.600;2022-11-23T04:59:51;5.60;99.90
26954;DHT22;14508;50.924;11.600;2022-11-23T05:02:22;5.50;99.90
26954;DHT22;14508;50.924;11.600;2022-11-23T05:04:59;5.30;99.90
26954;DHT22;14508;50.924;11.600;2022-11-23T05:07:28;5.10;99.90
26954;DHT22;14508;50.924;11.600;2022-11-23T05:10:00;5.10;99.90
26954;DHT22;14508;50.924;11.600;2022-11-23T05:12:30;5.00;99.90
26954;DHT22;14508;50.924;11.600;2022-11-23T05:14:59;5.10;99.90
26954;DHT22;14508;50.924;11.600;2022-11-23T05:17:33;5.10;99.90
26954;DHT22;14508;50.924;11.600;2022-11-23T05:20:06;5.20;99.90
26954;DHT22;14508;50.924;11.600;2022-11-23T05:22:38;5.30;99.90
26954;DHT22;14508;50.924;11.600;2022-11-23T05:25:10;5.30;99.90
26954;DHT22;14508;50.924;11.600;2022-11-23T05:27:38;5.30;99.90
26954;DHT22;14508;50.924;11.600;2022-11-23T05:30:07;5.30;99.90
26954;DHT22;14508;50.924;11.600;2022-11-23T05:32:36;5.40;99.90
26954;DHT22;14508;50.924;11.600;2022-11-23T05:35:07;5.50;99.90
26954;DHT22;14508;50.924;11.600;2022-11-23T05:37:37;5.60;99.90
26954;DHT22;14508;50.924;11.600;2022-11-23T05:40:08;5.60;99.90
26954;DHT22;14508;50.924;11.600;2022-11-23T05:42:37;5.70;99.90
26954;DHT22;14508;50.924;11.600;2022-11-23T05:45:17;5.80;99.90
26954;DHT22;14508;50.924;11.600;2022-11-23T05:47:49;5.90;99.90
26954;DHT22;14508;50.924;11.600;2022-11-23T05:50:27;6.00;99.90
26954;DHT22;14508;50.924;11.600;2022-11-23T05:53:13;6.00;99.90
26954;DHT22;14508;50.924;11.600;2022-11-23T05:55:46;6.10;99.90
26954;DHT22;14508;50.924;11.600;2022-11-23T05:58:19;6.10;99.90
26954;DHT22;14508;50.924;11.600;2022-11-23T06:00:49;6.20;99.90
26954;DHT22;14508;50.924;11.600;2022-11-23T06:03:17;6.30;99.90
26954;DHT22;14508;50.924;11.600;2022-11-23T06:05:47;6.30;99.90
26954;DHT22;14508;50.924;11.600;2022-11-23T06:08:19;6.30;99.90
26954;DHT22;14508;50.924;11.600;2022-11-23T06:10:47;6.30;99.90
26954;DHT22;14508;50.924;11.600;2022-11-23T06:13:16;6.20;99.90
26954;DHT22;14508;50.924;11.600;2022-11-23T06:15:45;6.20;99.90
26954;DHT22;14508;50.924;11.600;2022-11-23T06:18:19;6.10;99.90
26954;DHT22;14508;50.924;11.600;2022-11-23T06:20:50;6.00;99.90
26954;DHT22;14508;50.924;11.600;2022-11-23T06:23:18;5.90;99.90
26954;DHT22;14508;50.924;11.600;2022-11-23T06:25:46;5.70;99.90
26954;DHT22;14508;50.924;11.600;2022-11-23T06:28:19;5.60;99.90
26954;DHT22;14508;50.924;11.600;2022-11-23T06:30:49;5.50;99.90
26954;DHT22;14508;50.924;11.600;2022-11-23T06:33:16;5.40;99.90
26954;DHT22;14508;50.924;11.600;2022-11-23T06:35:53;5.30;99.90
26954;DHT22;14508;50.924;11.600;2022-11-23T06:38:24;5.30;99.90
26954;DHT22;14508;50.924;11.600;2022-11-23T06:41:02;5.20;99.90
26954;DHT22;14508;50.924;11.600;2022-11-23T06:43:30;5.20;99.90
26954;DHT22;14508;50.924;11.600;2022-11-23T06:46:02;5.20;99.90
26954;DHT22;14508;50.924;11.600;2022-11-23T06:48:33;5.20;99.90
26954;DHT22;14508;50.924;11.600;2022-11-23T06:51:03;5.20;99.90
26954;DHT22;14508;50.924;11.600;2022-11-23T06:53:32;5.30;99.90
26954;DHT22;14508;50.924;11.600;2022-11-23T06:56:04;5.30;99.90
26954;DHT22;14508;50.924;11.600;2022-11-23T06:58:32;5.30;99.90
26954;DHT22;14508;50.924;11.600;2022-11-23T07:01:04;5.10;99.90
26954;DHT22;14508;50.924;11.600;2022-11-23T07:03:42;5.00;99.90
26954;DHT22;14508;50.924;11.600;2022-11-23T07:06:22;4.90;99.90
26954;DHT22;14508;50.924;11.600;2022-11-23T07:08:53;4.70;99.90
26954;DHT22;14508;50.924;11.600;2022-11-23T07:11:41;4.50;99.90
26954;DHT22;14508;50.924;11.600;2022-11-23T07:14:10;4.50;99.90
26954;DHT22;14508;50.924;11.600;2022-11-23T07:16:41;4.40;99.90
26954;DHT22;14508;50.924;11.600;2022-11-23T07:19:09;4.30;99.90
26954;DHT22;14508;50.924;11.600;2022-11-23T07:21:39;4.20;99.90
26954;DHT22;14508;50.924;11.600;2022-11-23T07:24:07;4.20;99.90
26954;DHT22;14508;50.924;11.600;2022-11-23T07:26:36;4.20;99.90
26954;DHT22;14508;50.924;11.600;2022-11-23T07:29:04;4.20;99.90
26954;DHT22;14508;50.924;11.600;2022-11-23T07:31:32;4.20;99.90
26954;DHT22;14508;50.924;11.600;2022-11-23T07:34:02;4.10;99.90
26954;DHT22;14508;50.924;11.600;2022-11-23T07:36:31;4.20;99.90
26954;DHT22;14508;50.924;11.600;2022-11-23T07:39:01;4.20;99.90
26954;DHT22;14508;50.924;11.600;2022-11-23T07:41:29;4.20;99.90
26954;DHT22;14508;50.924;11.600;2022-11-23T07:44:07;4.30;99.90
26954;DHT22;14508;50.924;11.600;2022-11-23T07:46:35;4.30;99.90
26954;DHT22;14508;50.924;11.600;2022-11-23T07:49:04;4.40;99.90
26954;DHT22;14508;50.924;11.600;2022-11-23T07:51:32;4.40;99.90
26954;DHT22;14508;50.924;11.600;2022-11-23T07:54:02;4.50;99.90
26954;DHT22;14508;50.924;11.600;2022-11-23T07:56:30;4.60;99.90
26954;DHT22;14508;50.924;11.600;2022-11-23T07:58:58;4.70;99.90
26954;DHT22;14508;50.924;11.600;2022-11-23T08:01:26;4.70;99.90
26954;DHT22;14508;50.924;11.600;2022-11-23T08:03:54;4.70;99.90
26954;DHT22;14508;50.924;11.600;2022-11-23T08:06:22;4.70;99.90
26954;DHT22;14508;50.924;11.600;2022-11-23T08:08:51;4.70;99.90
26954;DHT22;14508;50.924;11.600;2022-11-23T08:11:22;4.80;99.90
26954;DHT22;14508;50.924;11.600;2022-11-23T08:13:50;4.90;99.90
26954;DHT22;14508;50.924;11.600;2022-11-23T08:16:18;5.00;99.90
26954;DHT22;14508;50.924;11.600;2022-11-23T08:18:46;5.20;99.90
26954;DHT22;14508;50.924;11.600;2022-11-23T08:21:16;5.30;99.90
26954;DHT22;14508;50.924;11.600;2022-11-23T08:23:44;5.60;99.90
26954;DHT22;14508;50.924;11.600;2022-11-23T08:26:12;5.80;99.90
26954;DHT22;14508;50.924;11.600;2022-11-23T08:28:42;6.00;99.90
26954;DHT22;14508;50.924;11.600;2022-11-23T08:31:10;6.20;99.90
26954;DHT22;14508;50.924;11.600;2022-11-23T08:33:40;6.30;99.90
26954;DHT22;14508;50.924;11.600;2022-11-23T08:36:08;6.50;99.90
26954;DHT22;14508;50.924;11.600;2022-11-23T08:38:36;6.60;99.90
26954;DHT22;14508;50.924;11.600;2022-11-23T08:41:05;6.70;99.90
26954;DHT22;14508;50.924;11.600;2022-11-23T08:43:33;6.80;99.90
26954;DHT22;14508;50.924;11.600;2022-11-23T08:46:03;6.90;99.90
26954;DHT22;14508;50.924;11.600;2022-11-23T08:48:36;7.00;99.90
26954;DHT22;14508;50.924;11.600;2022-11-23T08:51:05;7.10;99.90
26954;DHT22;14508;50.924;11.600;2022-11-23T08:53:33;7.20;99.90
26954;DHT22;14508;50.924;11.600;2022-11-23T08:56:01;7.30;99.90
26954;DHT22;14508;50.924;11.600;2022-11-23T08:58:30;7.30;99.90
26954;DHT22;14508;50.924;11.600;2022-11-23T09:00:58;7.40;99.90
26954;DHT22;14508;50.924;11.600;2022-11-23T09:03:27;7.50;99.90
26954;DHT22;14508;50.924;11.600;2022-11-23T09:05:58;7.60;99.90
26954;DHT22;14508;50.924;11.600;2022-11-23T09:08:27;7.60;99.90
26954;DHT22;14508;50.924;11.600;2022-11-23T09:10:58;7.70;99.90
26954;DHT22;14508;50.924;11.600;2022-11-23T09:13:26;7.70;99.90
26954;DHT22;14508;50.924;11.600;2022-11-23T09:15:56;7.80;99.90
26954;DHT22;14508;50.924;11.600;2022-11-23T09:18:27;7.90;99.90
26954;DHT22;14508;50.924;11.600;2022-11-23T09:20:56;7.90;99.90
26954;DHT22;14508;50.924;11.600;2022-11-23T09:23:24;7.90;99.90
26954;DHT22;14508;50.924;11.600;2022-11-23T09:25:56;8.00;99.90
26954;DHT22;14508;50.924;11.600;2022-11-23T09:28:24;8.10;99.90
26954;DHT22;14508;50.924;11.600;2022-11-23T09:30:53;8.10;99.90
26954;DHT22;14508;50.924;11.600;2022-11-23T09:33:22;8.20;99.90
26954;DHT22;14508;50.924;11.600;2022-11-23T09:35:57;8.30;99.90
26954;DHT22;14508;50.924;11.600;2022-11-23T09:38:25;8.40;99.90
26954;DHT22;14508;50.924;11.600;2022-11-23T09:41:31;8.40;99.90
26954;DHT22;14508;50.924;11.600;2022-11-23T09:44:05;8.40;99.90
26954;DHT22;14508;50.924;11.600;2022-11-23T09:46:44;8.50;99.90
26954;DHT22;14508;50.924;11.600;2022-11-23T09:49:17;8.50;99.90
26954;DHT22;14508;50.924;11.600;2022-11-23T09:51:49;8.60;99.90
26954;DHT22;14508;50.924;11.600;2022-11-23T09:54:23;8.70;99.90
26954;DHT22;14508;50.924;11.600;2022-11-23T09:56:53;8.80;99.90
26954;DHT22;14508;50.924;11.600;2022-11-23T09:59:35;8.90;99.90
26954;DHT22;14508;50.924;11.600;2022-11-23T10:02:03;9.00;99.90
26954;DHT22;14508;50.924;11.600;2022-11-23T10:04:33;9.10;99.90
26954;DHT22;14508;50.924;11.600;2022-11-23T10:07:16;9.30;99.90
26954;DHT22;14508;50.924;11.600;2022-11-23T10:09:53;9.40;99.90
26954;DHT22;14508;50.924;11.600;2022-11-23T10:12:38;9.50;99.90
26954;DHT22;14508;50.924;11.600;2022-11-23T10:15:16;9.60;99.90
26954;DHT22;14508;50.924;11.600;2022-11-23T10:17:56;9.70;99.90
26954;DHT22;14508;50.924;11.600;2022-11-23T10:23:30;9.80;99.90
26954;DHT22;14508;50.924;11.600;2022-11-23T10:26:01;9.90;99.90
26954;DHT22;14508;50.924;11.600;2022-11-23T10:28:30;9.90;99.90
26954;DHT22;14508;50.924;11.600;2022-11-23T10:31:09;10.00;99.90
26954;DHT22;14508;50.924;11.600;2022-11-23T10:33:47;10.00;99.90
26954;DHT22;14508;50.924;11.600;2022-11-23T10:36:17;10.10;99.90
26954;DHT22;14508;50.924;11.600;2022-11-23T10:38:49;10.10;99.90
26954;DHT22;14508;50.924;11.600;2022-11-23T10:41:18;10.20;99.90
26954;DHT22;14508;50.924;11.600;2022-11-23T10:43:48;10.30;99.90
26954;DHT22;14508;50.924;11.600;2022-11-23T10:46:25;10.30;99.90
26954;DHT22;14508;50.924;11.600;2022-11-23T10:48:55;10.30;99.90
26954;DHT22;14508;50.924;11.600;2022-11-23T10:51:34;10.30;99.90
26954;DHT22;14508;50.924;11.600;2022-11-23T10:54:16;10.40;99.90
26954;DHT22;14508;50.924;11.600;2022-11-23T10:56:47;10.40;99.90
26954;DHT22;14508;50.924;11.600;2022-11-23T10:59:26;10.50;99.90
26954;DHT22;14508;50.924;11.600;2022-11-23T11:02:00;10.50;99.90
26954;DHT22;14508;50.924;11.600;2022-11-23T11:04:28;10.50;99.90
26954;DHT22;14508;50.924;11.600;2022-11-23T11:07:16;10.60;99.90
26954;DHT22;14508;50.924;11.600;2022-11-23T11:09:50;10.70;99.90
26954;DHT22;14508;50.924;11.600;2022-11-23T11:12:18;10.70;99.90
26954;DHT22;14508;50.924;11.600;2022-11-23T11:14:55;10.80;99.90
26954;DHT22;14508;50.924;11.600;2022-11-23T11:17:36;10.80;99.90
26954;DHT22;14508;50.924;11.600;2022-11-23T11:20:29;10.70;99.90
26954;DHT22;14508;50.924;11.600;2022-11-23T11:23:00;10.70;99.90
26954;DHT22;14508;50.924;11.600;2022-11-23T11:25:33;10.60;99.90
26954;DHT22;14508;50.924;11.600;2022-11-23T11:28:02;10.60;99.90
26954;DHT22;14508;50.924;11.600;2022-11-23T11:30:40;10.60;99.90
26954;DHT22;14508;50.924;11.600;2022-11-23T11:33:14;10.60;99.90
26954;DHT22;14508;50.924;11.600;2022-11-23T11:35:47;10.60;99.90
26954;DHT22;14508;50.924;11.600;2022-11-23T11:38:18;10.60;99.90
26954;DHT22;14508;50.924;11.600;2022-11-23T11:40:50;10.70;99.90
26954;DHT22;14508;50.924;11.600;2022-11-23T11:43:21;10.70;99.90
26954;DHT22;14508;50.924;11.600;2022-11-23T11:46:11;10.70;99.90
26954;DHT22;14508;50.924;11.600;2022-11-23T11:48:58;10.70;99.90
26954;DHT22;14508;50.924;11.600;2022-11-23T11:51:30;10.70;99.90
26954;DHT22;14508;50.924;11.600;2022-11-23T11:54:04;10.70;99.90
26954;DHT22;14508;50.924;11.600;2022-11-23T11:56:40;10.80;99.90
26954;DHT22;14508;50.924;11.600;2022-11-23T11:59:13;10.90;99.90
26954;DHT22;14508;50.924;11.600;2022-11-23T12:01:46;11.00;99.90
26954;DHT22;14508;50.924;11.600;2022-11-23T12:04:20;11.00;99.90
26954;DHT22;14508;50.924;11.600;2022-11-23T12:06:50;11.10;99.90
26954;DHT22;14508;50.924;11.600;2022-11-23T12:09:23;11.20;99.90
26954;DHT22;14508;50.924;11.600;2022-11-23T12:11:54;11.20;99.90
26954;DHT22;14508;50.924;11.600;2022-11-23T12:14:23;11.20;99.90
26954;DHT22;14508;50.924;11.600;2022-11-23T12:16:57;11.20;99.90
26954;DHT22;14508;50.924;11.600;2022-11-23T12:19:50;11.20;99.90
26954;DHT22;14508;50.924;11.600;2022-11-23T12:22:34;11.20;99.90
26954;DHT22;14508;50.924;11.600;2022-11-23T12:25:19;11.00;99.40
26954;DHT22;14508;50.924;11.600;2022-11-23T12:27:59;11.00;99.90
26954;DHT22;14508;50.924;11.600;2022-11-23T12:30:35;10.90;99.90
26954;DHT22;14508;50.924;11.600;2022-11-23T12:33:29;10.90;99.90
26954;DHT22;14508;50.924;11.600;2022-11-23T12:36:10;10.80;99.90
26954;DHT22;14508;50.924;11.600;2022-11-23T12:38:51;10.80;99.90
26954;DHT22;14508;50.924;11.600;2022-11-23T12:41:30;10.90;99.90
26954;DHT22;14508;50.924;11.600;2022-11-23T12:47:08;10.90;99.90
26954;DHT22;14508;50.924;11.600;2022-11-23T12:49:43;10.80;99.90
26954;DHT22;14508;50.924;11.600;2022-11-23T12:52:29;10.60;99.90
26954;DHT22;14508;50.924;11.600;2022-11-23T12:55:04;10.50;99.90
26954;DHT22;14508;50.924;11.600;2022-11-23T12:57:49;10.40;99.90
26954;DHT22;14508;50.924;11.600;2022-11-23T13:00:20;10.40;99.90
26954;DHT22;14508;50.924;11.600;2022-11-23T13:03:35;10.40;99.90
26954;DHT22;14508;50.924;11.600;2022-11-23T13:06:11;10.50;99.90
26954;DHT22;14508;50.924;11.600;2022-11-23T13:08:58;10.50;99.90
26954;DHT22;14508;50.924;11.600;2022-11-23T13:11:38;10.60;99.90
26954;DHT22;14508;50.924;11.600;2022-11-23T13:14:17;10.60;99.90
26954;DHT22;14508;50.924;11.600;2022-11-23T13:16:58;10.60;99.90
26954;DHT22;14508;50.924;11.600;2022-11-23T13:19:48;10.60;99.90
26954;DHT22;14508;50.924;11.600;2022-11-23T13:22:21;10.60;99.90
26954;DHT22;14508;50.924;11.600;2022-11-23T13:25:18;10.60;99.90
26954;DHT22;14508;50.924;11.600;2022-11-23T13:27:58;10.50;99.90
26954;DHT22;14508;50.924;11.600;2022-11-23T13:30:30;10.40;99.90
26954;DHT22;14508;50.924;11.600;2022-11-23T13:33:35;10.40;99.90
26954;DHT22;14508;50.924;11.600;2022-11-23T13:36:09;10.40;99.90
26954;DHT22;14508;50.924;11.600;2022-11-23T13:38:45;10.40;99.90
26954;DHT22;14508;50.924;11.600;2022-11-23T13:44:23;10.40;99.90
26954;DHT22;14508;50.924;11.600;2022-11-23T13:47:14;10.50;99.90
26954;DHT22;14508;50.924;11.600;2022-11-23T13:49:45;10.50;99.90
26954;DHT22;14508;50.924;11.600;2022-11-23T13:52:30;10.40;99.90
26954;DHT22;14508;50.924;11.600;2022-11-23T13:55:17;10.50;99.90
26954;DHT22;14508;50.924;11.600;2022-11-23T14:00:49;10.50;99.90
26954;DHT22;14508;50.924;11.600;2022-11-23T14:03:47;10.40;99.90
26954;DHT22;14508;50.924;11.600;2022-11-23T14:06:28;10.30;99.90
26954;DHT22;14508;50.924;11.600;2022-11-23T14:09:05;10.10;99.90
26954;DHT22;14508;50.924;11.600;2022-11-23T14:11:47;10.00;99.90
26954;DHT22;14508;50.924;11.600;2022-11-23T14:14:21;9.80;99.90
26954;DHT22;14508;50.924;11.600;2022-11-23T14:17:11;9.70;99.90
26954;DHT22;14508;50.924;11.600;2022-11-23T14:20:03;9.60;99.90
26954;DHT22;14508;50.924;11.600;2022-11-23T14:22:42;9.50;99.90
26954;DHT22;14508;50.924;11.600;2022-11-23T14:25:30;9.40;99.90
26954;DHT22;14508;50.924;11.600;2022-11-23T14:28:06;9.30;99.90
26954;DHT22;14508;50.924;11.600;2022-11-23T14:30:49;9.20;99.90
26954;DHT22;14508;50.924;11.600;2022-11-23T14:33:25;9.20;99.90
26954;DHT22;14508;50.924;11.600;2022-11-23T14:36:05;9.10;99.90
26954;DHT22;14508;50.924;11.600;2022-11-23T14:38:55;9.00;99.90
26954;DHT22;14508;50.924;11.600;2022-11-23T14:41:31;8.90;99.90
26954;DHT22;14508;50.924;11.600;2022-11-23T14:44:02;8.80;99.90
26954;DHT22;14508;50.924;11.600;2022-11-23T14:46:31;8.70;99.90
26954;DHT22;14508;50.924;11.600;2022-11-23T14:49:04;8.60;99.90
26954;DHT22;14508;50.924;11.600;2022-11-23T14:51:34;8.50;99.90
26954;DHT22;14508;50.924;11.600;2022-11-23T14:54:07;8.50;99.90
26954;DHT22;14508;50.924;11.600;2022-11-23T14:56:40;8.40;99.90
26954;DHT22;14508;50.924;11.600;2022-11-23T14:59:17;8.30;99.90
26954;DHT22;14508;50.924;11.600;2022-11-23T15:01:49;8.20;99.90
26954;DHT22;14508;50.924;11.600;2022-11-23T15:04:22;8.10;99.90
26954;DHT22;14508;50.924;11.600;2022-11-23T15:06:54;8.00;99.90
26954;DHT22;14508;50.924;11.600;2022-11-23T15:09:37;7.90;99.90
26954;DHT22;14508;50.924;11.600;2022-11-23T15:12:16;7.90;99.90
26954;DHT22;14508;50.924;11.600;2022-11-23T15:14:46;7.70;99.90
26954;DHT22;14508;50.924;11.600;2022-11-23T15:17:15;7.60;99.90
26954;DHT22;14508;50.924;11.600;2022-11-23T15:19:52;7.50;99.90
26954;DHT22;14508;50.924;11.600;2022-11-23T15:22:21;7.40;99.90
26954;DHT22;14508;50.924;11.600;2022-11-23T15:24:50;7.20;99.90
26954;DHT22;14508;50.924;11.600;2022-11-23T15:27:24;7.10;99.90
26954;DHT22;14508;50.924;11.600;2022-11-23T15:29:56;7.00;99.90
26954;DHT22;14508;50.924;11.600;2022-11-23T15:32:26;6.90;99.90
26954;DHT22;14508;50.924;11.600;2022-11-23T15:35:01;6.80;99.90
26954;DHT22;14508;50.924;11.600;2022-11-23T15:37:30;6.60;99.90
26954;DHT22;14508;50.924;11.600;2022-11-23T15:39:59;6.50;99.90
26954;DHT22;14508;50.924;11.600;2022-11-23T15:42:28;6.50;99.90
26954;DHT22;14508;50.924;11.600;2022-11-23T15:44:57;6.40;99.90
26954;DHT22;14508;50.924;11.600;2022-11-23T15:47:26;6.30;99.90
26954;DHT22;14508;50.924;11.600;2022-11-23T15:49:59;6.20;99.90
26954;DHT22;14508;50.924;11.600;2022-11-23T15:52:31;6.10;99.90
26954;DHT22;14508;50.924;11.600;2022-11-23T15:55:02;6.00;99.90
26954;DHT22;14508;50.924;11.600;2022-11-23T15:57:36;5.90;99.90
26954;DHT22;14508;50.924;11.600;2022-11-23T16:00:07;5.80;99.90
26954;DHT22;14508;50.924;11.600;2022-11-23T16:02:39;5.80;99.90
26954;DHT22;14508;50.924;11.600;2022-11-23T16:05:12;5.70;99.90
26954;DHT22;14508;50.924;11.600;2022-11-23T16:07:52;5.60;99.90
26954;DHT22;14508;50.924;11.600;2022-11-23T16:10:22;5.60;99.90
26954;DHT22;14508;50.924;11.600;2022-11-23T16:12:53;5.50;99.90
26954;DHT22;14508;50.924;11.600;2022-11-23T16:15:34;5.40;99.90